createdAt,value
2018-07-14T00:00:21.398Z,0
2018-07-14T00:01:01.807Z,0
2018-07-14T00:01:42.196Z,0
2018-07-14T00:02:22.578Z,0
2018-07-14T00:03:03.015Z,0
2018-07-14T00:03:43.403Z,0
2018-07-14T00:04:23.815Z,0
2018-07-14T00:05:04.281Z,0
2018-07-14T00:05:44.620Z,0
2018-07-14T00:06:25.050Z,0
2018-07-14T00:07:05.429Z,0
2018-07-14T00:07:45.850Z,0
2018-07-14T00:08:26.232Z,0
2018-07-14T00:09:06.626Z,0
2018-07-14T00:09:47.014Z,0
2018-07-14T00:10:27.434Z,0
2018-07-14T00:11:07.853Z,0
2018-07-14T00:11:48.247Z,0
2018-07-14T00:12:28.621Z,0
2018-07-14T00:13:09.067Z,0
2018-07-14T00:13:49.456Z,0
2018-07-14T00:14:29.835Z,0
2018-07-14T00:15:10.248Z,0
2018-07-14T00:15:50.707Z,0
2018-07-14T00:16:31.089Z,0
2018-07-14T00:17:11.454Z,0
2018-07-14T00:17:51.888Z,0
2018-07-14T00:18:32.249Z,0
2018-07-14T00:19:12.656Z,0
2018-07-14T00:19:53.085Z,0
2018-07-14T00:20:33.520Z,0
2018-07-14T00:21:13.888Z,0
2018-07-14T00:21:54.265Z,0
2018-07-14T00:22:34.645Z,0
2018-07-14T00:23:15.135Z,0
2018-07-14T00:23:55.475Z,0
2018-07-14T00:24:35.840Z,0
2018-07-14T00:25:16.226Z,0
2018-07-14T00:25:56.640Z,0
2018-07-14T00:26:37.059Z,0
2018-07-14T00:27:17.459Z,0
2018-07-14T00:27:57.893Z,0
2018-07-14T00:28:38.239Z,0
2018-07-14T00:29:18.698Z,0
2018-07-14T00:29:59.036Z,0
2018-07-14T00:32:32.264Z,0
2018-07-14T00:33:12.632Z,0
2018-07-14T00:33:53.045Z,0
2018-07-14T00:34:33.423Z,0
2018-07-14T00:35:13.818Z,0
2018-07-14T00:35:54.272Z,0
2018-07-14T00:36:34.620Z,0
2018-07-14T00:37:15.036Z,0
2018-07-14T00:39:48.655Z,0
2018-07-14T00:40:28.640Z,0
2018-07-14T00:41:09.078Z,0
2018-07-14T00:41:49.449Z,0
2018-07-14T00:42:29.840Z,0
2018-07-14T00:43:10.260Z,0
2018-07-14T00:43:50.644Z,0
2018-07-14T00:44:31.098Z,0
2018-07-14T00:45:11.428Z,0
2018-07-14T00:45:51.831Z,0
2018-07-14T00:46:32.256Z,0
2018-07-14T00:47:12.686Z,0
2018-07-14T00:47:53.083Z,0
2018-07-14T00:48:33.491Z,0
2018-07-14T00:49:13.926Z,0
2018-07-14T00:49:54.363Z,0
2018-07-14T00:50:34.722Z,0
2018-07-14T00:51:15.158Z,0
2018-07-14T00:51:55.543Z,0
2018-07-14T00:52:35.998Z,0
2018-07-14T00:53:16.379Z,0
2018-07-14T00:53:56.782Z,0
2018-07-14T00:54:37.215Z,0
2018-07-14T00:55:17.609Z,0
2018-07-14T00:55:58.010Z,0
2018-07-14T00:56:38.461Z,0
2018-07-14T00:57:18.827Z,0
2018-07-14T00:57:59.280Z,0
2018-07-14T00:58:39.689Z,0
2018-07-14T00:59:20.155Z,0
2018-07-14T01:00:00.619Z,0
2018-07-14T01:00:41.015Z,0
2018-07-14T01:01:21.422Z,0
2018-07-14T01:02:01.921Z,0
2018-07-14T01:02:42.244Z,0
2018-07-14T01:03:22.661Z,0
2018-07-14T01:04:03.068Z,0
2018-07-14T01:04:43.482Z,0
2018-07-14T01:05:23.967Z,0
2018-07-14T01:06:04.325Z,0
2018-07-14T01:06:44.712Z,0
2018-07-14T01:07:25.112Z,0
2018-07-14T01:08:05.523Z,0
2018-07-14T01:08:45.954Z,0
2018-07-14T01:09:26.406Z,0
2018-07-14T01:10:06.763Z,0
2018-07-14T01:10:47.142Z,0
2018-07-14T01:11:27.569Z,0
2018-07-14T01:12:07.959Z,0
2018-07-14T01:12:48.394Z,0
2018-07-14T01:13:28.776Z,0
2018-07-14T01:14:09.206Z,0
2018-07-14T01:14:49.649Z,0
2018-07-14T01:15:30.057Z,0
2018-07-14T01:16:10.463Z,0
2018-07-14T01:16:50.860Z,0
2018-07-14T01:17:31.318Z,0
2018-07-14T01:18:11.679Z,0
2018-07-14T01:18:52.121Z,0
2018-07-14T01:19:32.493Z,0
2018-07-14T01:20:12.907Z,0
2018-07-14T01:20:53.319Z,0
2018-07-14T01:21:33.754Z,0
2018-07-14T01:22:14.162Z,0
2018-07-14T01:22:54.564Z,0
2018-07-14T01:23:34.952Z,0
2018-07-14T01:24:15.354Z,0
2018-07-14T01:24:55.785Z,0
2018-07-14T01:25:36.190Z,0
2018-07-14T01:26:16.589Z,0
2018-07-14T01:26:57.083Z,0
2018-07-14T01:27:37.444Z,0
2018-07-14T01:28:17.817Z,0
2018-07-14T01:28:58.237Z,0
2018-07-14T01:29:38.645Z,0
2018-07-14T01:32:12.613Z,0
2018-07-14T01:32:52.863Z,0
2018-07-14T01:33:33.286Z,0
2018-07-14T01:34:13.748Z,0
2018-07-14T01:34:54.068Z,0
2018-07-14T01:35:34.453Z,0
2018-07-14T01:36:14.851Z,0
2018-07-14T01:36:55.280Z,0
2018-07-14T01:37:35.656Z,0
2018-07-14T01:38:16.048Z,0
2018-07-14T01:38:56.468Z,0
2018-07-14T01:39:36.810Z,0
2018-07-14T01:40:17.262Z,0
2018-07-14T01:40:57.697Z,0
2018-07-14T01:41:38.116Z,0
2018-07-14T01:42:18.519Z,0
2018-07-14T01:42:58.946Z,0
2018-07-14T01:43:39.350Z,0
2018-07-14T01:44:19.759Z,0
2018-07-14T01:45:00.155Z,0
2018-07-14T01:45:40.542Z,0
2018-07-14T01:46:20.935Z,0
2018-07-14T01:47:01.404Z,0
2018-07-14T01:47:41.794Z,0
2018-07-14T01:48:22.197Z,0
2018-07-14T01:49:02.662Z,0
2018-07-14T01:49:43.012Z,0
2018-07-14T01:50:23.476Z,0
2018-07-14T01:51:03.859Z,0
2018-07-14T01:51:44.328Z,0
2018-07-14T01:52:24.713Z,0
2018-07-14T01:53:05.098Z,0
2018-07-14T01:53:45.521Z,0
2018-07-14T01:54:25.916Z,0
2018-07-14T01:55:06.313Z,0
2018-07-14T01:55:46.803Z,0
2018-07-14T01:56:27.213Z,0
2018-07-14T01:57:07.605Z,0
2018-07-14T01:57:48.012Z,0
2018-07-14T01:58:28.421Z,0
2018-07-14T01:59:08.831Z,0
2018-07-14T01:59:49.216Z,0
2018-07-14T02:00:29.637Z,0
2018-07-14T02:01:10.043Z,0
2018-07-14T02:01:50.435Z,0
2018-07-14T02:02:30.821Z,0
2018-07-14T02:03:11.277Z,0
2018-07-14T02:03:51.654Z,0
2018-07-14T02:04:32.125Z,0
2018-07-14T02:05:12.470Z,0
2018-07-14T02:05:52.914Z,0
2018-07-14T02:06:33.280Z,0
2018-07-14T02:07:13.685Z,0
2018-07-14T02:07:54.096Z,0
2018-07-14T02:08:34.506Z,0
2018-07-14T02:09:14.938Z,0
2018-07-14T02:09:55.318Z,0
2018-07-14T02:10:35.721Z,0
2018-07-14T02:11:16.135Z,0
2018-07-14T02:11:56.535Z,0
2018-07-14T02:12:36.952Z,0
2018-07-14T02:14:54.958Z,0
2018-07-14T02:15:34.905Z,0
2018-07-14T02:16:15.287Z,0
2018-07-14T02:16:55.662Z,0
2018-07-14T02:17:36.064Z,0
2018-07-14T02:18:17.407Z,0
2018-07-14T02:18:57.816Z,0
2018-07-14T02:19:38.215Z,0
2018-07-14T02:20:18.620Z,0
2018-07-14T02:20:59.019Z,0
2018-07-14T02:21:39.433Z,0
2018-07-14T02:22:19.882Z,0
2018-07-14T02:23:00.271Z,0
2018-07-14T02:23:40.707Z,0
2018-07-14T02:24:21.061Z,0
2018-07-14T02:25:01.454Z,0
2018-07-14T02:25:41.849Z,0
2018-07-14T02:26:22.250Z,0
2018-07-14T02:27:02.648Z,0
2018-07-14T02:27:43.071Z,0
2018-07-14T02:28:23.487Z,0
2018-07-14T02:29:03.886Z,0
2018-07-14T02:29:44.296Z,0
2018-07-14T02:30:24.723Z,0
2018-07-14T02:31:05.084Z,0
2018-07-14T02:31:45.512Z,0
2018-07-14T02:32:25.936Z,0
2018-07-14T02:33:06.320Z,0
2018-07-14T02:33:46.727Z,0
2018-07-14T02:34:27.119Z,0
2018-07-14T02:35:07.553Z,0
2018-07-14T02:35:47.926Z,0
2018-07-14T02:36:28.340Z,0
2018-07-14T02:37:08.735Z,0
2018-07-14T02:37:49.156Z,0
2018-07-14T02:38:29.577Z,0
2018-07-14T02:39:09.952Z,0
2018-07-14T02:39:50.365Z,0
2018-07-14T02:40:30.790Z,0
2018-07-14T02:41:11.166Z,0
2018-07-14T02:41:51.541Z,0
2018-07-14T02:42:31.930Z,0
2018-07-14T02:43:12.417Z,0
2018-07-14T02:43:52.798Z,0
2018-07-14T02:44:33.197Z,0
2018-07-14T02:45:13.581Z,0
2018-07-14T02:45:53.957Z,0
2018-07-14T02:46:34.363Z,0
2018-07-14T02:47:14.763Z,0
2018-07-14T02:47:55.218Z,0
2018-07-14T02:48:35.590Z,0
2018-07-14T02:49:15.992Z,0
2018-07-14T02:49:56.396Z,0
2018-07-14T02:50:36.805Z,0
2018-07-14T02:51:17.207Z,0
2018-07-14T02:51:57.589Z,0
2018-07-14T02:52:38.027Z,0
2018-07-14T02:53:18.436Z,0
2018-07-14T02:53:58.832Z,0
2018-07-14T02:54:39.238Z,0
2018-07-14T02:55:19.605Z,0
2018-07-14T02:56:00.024Z,0
2018-07-14T02:56:40.441Z,0
2018-07-14T02:57:20.833Z,0
2018-07-14T02:58:01.252Z,0
2018-07-14T02:58:41.652Z,0
2018-07-14T02:59:22.051Z,0
2018-07-14T03:00:02.443Z,0
2018-07-14T03:00:42.870Z,0
2018-07-14T03:01:23.235Z,4
2018-07-14T03:02:03.660Z,4
2018-07-14T03:06:42.523Z,4
2018-07-14T03:07:23.753Z,4
2018-07-14T03:09:37.115Z,4
2018-07-14T03:10:17.668Z,4
2018-07-14T03:10:58.076Z,4
2018-07-14T03:11:38.516Z,8
2018-07-14T03:12:18.900Z,8
2018-07-14T03:12:59.338Z,4
2018-07-14T03:13:39.701Z,8
2018-07-14T03:14:20.130Z,8
2018-07-14T03:15:00.505Z,8
2018-07-14T03:15:40.920Z,8
2018-07-14T03:16:21.315Z,12
2018-07-14T03:17:01.703Z,12
2018-07-14T03:17:42.085Z,12
2018-07-14T03:18:22.495Z,12
2018-07-14T03:19:02.949Z,12
2018-07-14T03:19:43.316Z,16
2018-07-14T03:20:23.718Z,16
2018-07-14T03:21:04.115Z,16
2018-07-14T03:21:44.507Z,16
2018-07-14T03:24:19.627Z,24
2018-07-14T03:25:00.003Z,24
2018-07-14T03:25:40.412Z,28
2018-07-14T03:26:20.832Z,28
2018-07-14T03:27:01.242Z,28
2018-07-14T03:27:41.637Z,32
2018-07-14T03:28:22.022Z,36
2018-07-14T03:29:02.404Z,32
2018-07-14T03:29:42.804Z,36
2018-07-14T03:30:23.168Z,40
2018-07-14T03:31:03.571Z,44
2018-07-14T03:31:43.957Z,40
2018-07-14T03:32:24.370Z,44
2018-07-14T03:33:04.813Z,48
2018-07-14T03:33:45.185Z,52
2018-07-14T03:34:25.608Z,52
2018-07-14T03:35:06.039Z,56
2018-07-14T03:35:46.434Z,56
2018-07-14T03:36:26.875Z,64
2018-07-14T03:37:07.259Z,64
2018-07-14T03:37:47.655Z,68
2018-07-14T03:38:28.093Z,72
2018-07-14T03:39:08.493Z,76
2018-07-14T03:39:48.938Z,76
2018-07-14T03:40:29.402Z,84
2018-07-14T03:41:09.730Z,84
2018-07-14T03:41:50.196Z,88
2018-07-14T03:42:30.547Z,92
2018-07-14T03:43:10.978Z,96
2018-07-14T03:43:51.371Z,100
2018-07-14T03:44:31.834Z,108
2018-07-14T03:45:12.200Z,112
2018-07-14T03:45:52.628Z,112
2018-07-14T03:46:33.021Z,120
2018-07-14T03:47:13.429Z,124
2018-07-14T03:47:53.848Z,132
2018-07-14T03:48:34.245Z,136
2018-07-14T03:49:14.648Z,140
2018-07-14T03:49:55.041Z,148
2018-07-14T03:50:35.437Z,156
2018-07-14T03:51:15.860Z,160
2018-07-14T03:51:56.259Z,168
2018-07-14T03:52:36.650Z,176
2018-07-14T03:53:17.079Z,180
2018-07-14T03:53:57.492Z,188
2018-07-14T03:54:37.944Z,200
2018-07-14T03:55:18.305Z,208
2018-07-14T03:57:51.460Z,244
2018-07-14T03:58:31.555Z,252
2018-07-14T03:59:11.977Z,264
2018-07-14T03:59:52.343Z,268
2018-07-14T04:00:32.747Z,280
2018-07-14T04:01:13.168Z,292
2018-07-14T04:01:53.584Z,300
2018-07-14T04:02:33.957Z,312
2018-07-14T04:03:14.341Z,324
2018-07-14T04:43:00.685Z,3636
2018-07-14T04:43:40.300Z,3732
2018-07-14T04:44:20.703Z,3940
2018-07-14T04:45:01.113Z,4240
2018-07-14T04:45:41.512Z,4272
2018-07-14T04:46:21.924Z,4352
2018-07-14T04:47:02.294Z,4396
2018-07-14T04:47:42.722Z,4396
2018-07-14T04:48:23.119Z,4656
2018-07-14T04:49:03.547Z,4876
2018-07-14T04:49:43.987Z,5072
2018-07-14T04:50:24.420Z,5064
2018-07-14T04:51:04.795Z,5128
2018-07-14T04:51:45.177Z,5248
2018-07-14T04:52:25.673Z,5444
2018-07-14T04:53:05.965Z,5704
2018-07-14T04:53:46.381Z,5788
2018-07-14T04:54:26.852Z,6084
2018-07-14T04:55:07.309Z,6428
2018-07-14T04:55:47.680Z,6404
2018-07-14T04:56:28.166Z,6632
2018-07-14T04:57:08.552Z,6964
2018-07-14T04:57:49.367Z,7196
2018-07-14T04:58:29.527Z,7332
2018-07-14T04:59:10.295Z,7780
2018-07-14T04:59:50.373Z,7692
2018-07-14T05:00:30.791Z,7804
2018-07-14T05:01:11.209Z,8080
2018-07-14T05:01:51.567Z,8312
2018-07-14T05:02:31.987Z,8380
2018-07-14T05:03:12.366Z,8784
2018-07-14T05:03:52.808Z,8636
2018-07-14T05:04:33.329Z,8788
2018-07-14T05:05:13.704Z,8524
2018-07-14T05:05:54.104Z,9052
2018-07-14T05:06:34.630Z,9352
2018-07-14T05:07:14.916Z,9508
2018-07-14T05:07:55.302Z,9280
2018-07-14T05:08:35.773Z,9972
2018-07-14T05:09:16.122Z,10212
2018-07-14T05:09:56.534Z,10352
2018-07-14T05:10:37.052Z,10848
2018-07-14T05:11:17.463Z,10784
2018-07-14T05:11:57.870Z,11104
2018-07-14T05:12:38.279Z,11392
2018-07-14T05:13:18.686Z,11328
2018-07-14T05:13:59.131Z,11360
2018-07-14T05:14:39.499Z,11936
2018-07-14T05:15:19.939Z,12064
2018-07-14T05:16:00.337Z,12000
2018-07-14T05:18:21.411Z,12928
2018-07-14T05:19:01.744Z,13120
2018-07-14T05:19:42.198Z,12576
2018-07-14T05:21:39.869Z,13568
2018-07-14T05:22:20.292Z,14048
2018-07-14T05:23:00.693Z,14112
2018-07-14T05:23:41.084Z,13856
2018-07-14T05:24:21.532Z,13824
2018-07-14T05:25:01.951Z,14080
2018-07-14T05:25:42.328Z,13920
2018-07-14T05:26:24.225Z,14368
2018-07-14T05:27:04.257Z,14240
2018-07-14T05:27:44.994Z,13536
2018-07-14T05:28:25.428Z,14112
2018-07-14T05:29:05.966Z,14688
2018-07-14T05:29:46.605Z,15072
2018-07-14T05:30:32.514Z,14944
2018-07-14T05:31:12.916Z,15168
2018-07-14T05:31:53.728Z,15392
2018-07-14T05:32:33.742Z,15648
2018-07-14T05:33:14.126Z,16160
2018-07-14T05:33:54.591Z,16064
2018-07-14T05:34:35.009Z,16672
2018-07-14T05:35:15.444Z,17312
2018-07-14T05:35:56.216Z,17472
2018-07-14T05:36:36.297Z,17728
2018-07-14T05:37:16.741Z,18080
2018-07-14T05:37:57.472Z,17984
2018-07-14T05:38:37.835Z,18080
2018-07-14T05:39:18.259Z,18144
2018-07-14T05:39:58.675Z,19104
2018-07-14T05:40:39.189Z,18944
2018-07-14T05:41:19.583Z,19232
2018-07-14T05:41:59.937Z,19584
2018-07-14T05:42:40.397Z,19040
2018-07-14T05:43:24.584Z,18624
2018-07-14T05:44:04.927Z,18848
2018-07-14T05:44:45.254Z,19040
2018-07-14T05:45:25.660Z,18880
2018-07-14T05:46:06.050Z,18144
2018-07-14T05:46:46.492Z,17632
2018-07-14T05:47:26.943Z,16896
2018-07-14T05:48:07.419Z,16480
2018-07-14T05:50:20.265Z,15712
2018-07-14T05:51:00.221Z,16896
2018-07-14T05:51:40.655Z,18400
2018-07-14T05:52:21.070Z,19200
2018-07-14T05:53:01.473Z,19104
2018-07-14T05:53:42.016Z,18240
2018-07-14T05:54:22.276Z,17888
2018-07-14T05:55:02.683Z,18304
2018-07-14T05:55:43.075Z,18816
2018-07-14T05:56:23.525Z,20544
2018-07-14T05:57:03.980Z,21440
2018-07-14T05:57:44.653Z,21952
2018-07-14T05:58:25.034Z,22400
2018-07-14T05:59:05.454Z,22560
2018-07-14T05:59:45.879Z,22048
2018-07-14T06:00:26.279Z,22368
2018-07-14T06:01:06.702Z,22496
2018-07-14T06:01:47.098Z,23040
2018-07-14T06:02:27.536Z,23552
2018-07-14T06:03:07.979Z,23392
2018-07-14T06:03:48.508Z,23520
2018-07-14T06:04:28.889Z,23552
2018-07-14T06:05:09.298Z,24256
2018-07-14T06:05:49.797Z,25152
2018-07-14T06:06:30.203Z,25632
2018-07-14T06:07:10.641Z,24736
2018-07-14T06:07:51.050Z,25728
2018-07-14T06:08:31.419Z,25280
2018-07-14T06:09:11.808Z,24992
2018-07-14T06:09:52.227Z,24384
2018-07-14T06:10:32.649Z,25536
2018-07-14T06:11:13.049Z,24224
2018-07-14T06:11:53.503Z,25728
2018-07-14T06:12:33.917Z,26656
2018-07-14T06:13:14.319Z,26976
2018-07-14T06:13:54.776Z,26272
2018-07-14T06:14:35.163Z,27264
2018-07-14T06:15:15.631Z,26976
2018-07-14T06:15:56.051Z,27712
2018-07-14T06:16:36.440Z,28480
2018-07-14T06:17:16.871Z,29120
2018-07-14T06:17:57.272Z,29792
2018-07-14T06:18:37.722Z,29856
2018-07-14T06:19:18.123Z,29280
2018-07-14T06:19:58.577Z,29760
2018-07-14T06:20:38.952Z,30112
2018-07-14T06:21:19.370Z,31328
2018-07-14T06:21:59.768Z,31168
2018-07-14T06:22:40.167Z,30112
2018-07-14T06:23:20.594Z,30784
2018-07-14T06:24:01.065Z,31456
2018-07-14T06:24:41.449Z,28256
2018-07-14T06:25:21.885Z,27776
2018-07-14T06:26:02.289Z,21792
2018-07-14T06:26:42.706Z,26816
2018-07-14T06:27:23.159Z,28512
2018-07-14T06:28:03.538Z,30880
2018-07-14T06:28:43.939Z,30144
2018-07-14T06:31:16.749Z,26336
2018-07-14T06:31:57.203Z,30720
2018-07-14T06:32:37.512Z,33248
2018-07-14T06:33:17.995Z,31040
2018-07-14T06:33:58.337Z,26752
2018-07-14T06:34:38.769Z,25088
2018-07-14T06:35:19.536Z,24288
2018-07-14T06:35:59.949Z,23488
2018-07-14T06:36:40.367Z,22752
2018-07-14T06:37:20.791Z,22816
2018-07-14T06:38:01.222Z,22528
2018-07-14T06:38:41.816Z,22432
2018-07-14T06:39:22.068Z,22560
2018-07-14T06:40:02.478Z,23008
2018-07-14T06:40:42.956Z,23488
2018-07-14T06:41:23.326Z,23712
2018-07-14T06:42:03.690Z,23936
2018-07-14T06:42:44.141Z,24064
2018-07-14T06:45:22.440Z,23328
2018-07-14T06:46:01.930Z,20608
2018-07-14T06:46:42.356Z,20512
2018-07-14T06:47:22.778Z,20928
2018-07-14T06:48:03.209Z,20576
2018-07-14T06:48:43.630Z,20896
2018-07-14T06:49:24.059Z,21344
2018-07-14T06:50:04.543Z,21952
2018-07-14T06:50:44.895Z,22368
2018-07-14T06:51:25.346Z,22496
2018-07-14T06:52:05.745Z,22560
2018-07-14T06:52:46.168Z,23008
2018-07-14T06:53:26.608Z,22240
2018-07-14T06:54:07.087Z,22144
2018-07-14T06:54:47.434Z,22528
2018-07-14T06:55:27.905Z,22976
2018-07-14T06:57:47.881Z,20576
2018-07-14T06:58:26.106Z,20064
2018-07-14T07:01:00.330Z,20256
2018-07-14T07:01:39.858Z,20352
2018-07-14T07:02:20.254Z,21280
2018-07-14T07:03:00.650Z,23616
2018-07-14T07:03:41.093Z,27008
2018-07-14T07:05:53.733Z,37856
2018-07-14T07:06:34.007Z,37696
2018-07-14T07:07:14.414Z,38016
2018-07-14T07:07:54.835Z,38144
2018-07-14T07:08:35.250Z,37696
2018-07-14T07:09:15.655Z,37568
2018-07-14T07:09:56.089Z,37600
2018-07-14T07:10:36.508Z,37216
2018-07-14T07:11:16.931Z,36512
2018-07-14T07:11:57.326Z,36800
2018-07-14T07:12:37.723Z,37568
2018-07-14T07:13:18.134Z,38400
2018-07-14T07:13:58.551Z,39424
2018-07-14T07:14:38.968Z,39040
2018-07-14T07:15:19.387Z,39584
2018-07-14T07:15:59.825Z,38848
2018-07-14T07:16:40.809Z,38752
2018-07-14T07:17:21.210Z,39520
2018-07-14T07:18:01.646Z,38528
2018-07-14T07:18:42.789Z,36320
2018-07-14T07:19:23.207Z,30112
2018-07-14T07:20:03.602Z,23168
2018-07-14T07:20:44.050Z,18848
2018-07-14T07:21:24.491Z,18592
2018-07-14T07:22:04.906Z,18080
2018-07-14T07:22:46.101Z,17440
2018-07-14T07:23:26.464Z,16800
2018-07-14T07:24:06.871Z,16228
2018-07-14T07:24:47.376Z,15720
2018-07-14T07:25:27.717Z,15148
2018-07-14T07:26:08.152Z,14776
2018-07-14T07:26:48.578Z,14384
2018-07-14T07:27:28.997Z,13948
2018-07-14T07:28:09.488Z,13612
2018-07-14T07:28:49.947Z,13456
2018-07-14T07:29:30.295Z,13000
2018-07-14T07:30:10.722Z,12952
2018-07-14T07:30:51.196Z,12976
2018-07-14T07:31:31.602Z,12840
2018-07-14T07:32:11.971Z,13016
2018-07-14T07:32:52.381Z,12956
2018-07-14T07:33:32.783Z,11920
2018-07-14T07:34:13.183Z,10096
2018-07-14T07:34:53.601Z,8664
2018-07-14T07:35:34.005Z,8176
2018-07-14T07:36:14.462Z,8008
2018-07-14T07:36:54.892Z,7888
2018-07-14T07:37:35.291Z,7820
2018-07-14T07:38:15.755Z,7740
2018-07-14T07:38:56.172Z,7656
2018-07-14T07:39:36.582Z,7556
2018-07-14T07:40:17.000Z,7400
2018-07-14T07:40:57.399Z,7264
2018-07-14T07:41:37.860Z,7132
2018-07-14T07:42:18.313Z,7072
2018-07-14T07:42:58.749Z,7044
2018-07-14T07:43:39.196Z,7000
2018-07-14T07:44:19.627Z,6944
2018-07-14T07:45:00.053Z,6884
2018-07-14T07:45:40.443Z,6840
2018-07-14T07:46:20.849Z,6792
2018-07-14T07:47:01.283Z,6748
2018-07-14T07:47:41.729Z,6712
2018-07-14T07:48:22.115Z,6672
2018-07-14T07:49:02.530Z,6608
2018-07-14T07:49:42.946Z,6560
2018-07-14T07:50:23.344Z,6492
2018-07-14T07:51:03.774Z,6436
2018-07-14T07:51:44.177Z,6360
2018-07-14T07:54:46.871Z,6156
2018-07-14T07:55:27.231Z,6124
2018-07-14T07:56:07.656Z,6084
2018-07-14T07:56:48.062Z,6036
2018-07-14T07:57:28.524Z,6004
2018-07-14T07:58:08.908Z,5992
2018-07-14T07:58:49.330Z,5968
2018-07-14T07:59:29.871Z,5944
2018-07-14T08:00:10.209Z,5920
2018-07-14T08:00:50.629Z,5892
2018-07-14T08:01:31.015Z,5852
2018-07-14T08:02:11.413Z,5816
2018-07-14T08:02:51.833Z,5772
2018-07-14T08:03:32.250Z,5736
2018-07-14T08:04:12.702Z,5696
2018-07-14T08:04:53.133Z,5664
2018-07-14T08:05:33.531Z,5632
2018-07-14T08:06:13.967Z,5608
2018-07-14T08:06:54.452Z,5580
2018-07-14T08:07:34.846Z,5548
2018-07-14T08:08:15.273Z,5508
2018-07-14T08:08:55.715Z,5468
2018-07-14T08:09:36.132Z,5432
2018-07-14T08:10:16.864Z,5400
2018-07-14T08:10:57.200Z,5364
2018-07-14T08:11:37.595Z,5336
2018-07-14T08:12:18.047Z,5296
2018-07-14T08:12:58.523Z,5244
2018-07-14T08:13:38.931Z,5208
2018-07-14T08:14:19.387Z,5168
2018-07-14T08:14:59.855Z,5132
2018-07-14T08:15:40.253Z,5092
2018-07-14T08:16:20.784Z,5044
2018-07-14T08:17:01.132Z,5012
2018-07-14T08:17:41.548Z,4984
2018-07-14T08:18:22.008Z,4948
2018-07-14T08:19:02.401Z,4916
2018-07-14T08:19:42.863Z,4880
2018-07-14T08:20:23.254Z,4860
2018-07-14T08:21:03.684Z,4836
2018-07-14T08:21:44.230Z,4812
2018-07-14T08:22:24.614Z,4792
2018-07-14T08:23:06.024Z,4776
2018-07-14T08:23:45.696Z,4760
2018-07-14T08:26:27.576Z,4684
2018-07-14T08:27:08.083Z,4676
2018-07-14T08:27:48.507Z,4664
2018-07-14T08:28:28.970Z,4656
2018-07-14T08:29:09.301Z,4652
2018-07-14T08:29:49.730Z,4636
2018-07-14T08:30:30.186Z,4628
2018-07-14T08:31:10.584Z,4624
2018-07-14T08:33:32.929Z,4576
2018-07-14T08:34:13.733Z,4540
2018-07-14T08:34:54.119Z,4504
2018-07-14T08:35:34.526Z,4476
2018-07-14T08:36:14.948Z,4452
2018-07-14T08:36:55.409Z,4448
2018-07-14T08:37:36.086Z,4440
2018-07-14T08:38:16.555Z,4428
2018-07-14T08:38:57.009Z,4400
2018-07-14T08:39:37.415Z,4392
2018-07-14T08:40:17.814Z,4364
2018-07-14T08:40:58.234Z,4344
2018-07-14T08:41:38.772Z,4336
2018-07-14T08:42:19.145Z,4328
2018-07-14T08:42:59.556Z,4308
2018-07-14T08:43:40.040Z,4288
2018-07-14T08:44:20.396Z,4268
2018-07-14T08:45:00.838Z,4256
2018-07-14T08:45:41.321Z,4244
2018-07-14T08:46:21.714Z,4228
2018-07-14T08:47:02.107Z,4212
2018-07-14T08:47:42.509Z,4196
2018-07-14T08:48:23.268Z,4192
2018-07-14T08:49:03.700Z,4200
2018-07-14T08:49:44.133Z,4180
2018-07-14T08:50:24.633Z,4160
2018-07-14T08:52:53.954Z,4024
2018-07-14T08:53:32.886Z,4004
2018-07-14T08:54:13.280Z,3984
2018-07-14T08:54:53.676Z,3976
2018-07-14T08:55:34.120Z,3952
2018-07-14T08:56:14.544Z,3912
2018-07-14T08:56:55.005Z,3872
2018-07-14T08:57:35.465Z,3848
2018-07-14T08:58:15.937Z,3828
2018-07-14T08:58:56.327Z,3812
2018-07-14T08:59:36.940Z,3780
2018-07-14T09:00:17.253Z,3764
2018-07-14T09:00:57.629Z,3744
2018-07-14T09:01:38.105Z,3736
2018-07-14T09:02:18.552Z,3736
2018-07-14T09:02:58.962Z,3732
2018-07-14T09:03:39.427Z,3724
2018-07-14T09:04:19.787Z,3732
2018-07-14T09:05:00.218Z,3732
2018-07-14T09:05:40.614Z,3720
2018-07-14T09:06:21.038Z,3712
2018-07-14T09:07:01.436Z,3700
2018-07-14T09:07:41.873Z,3688
2018-07-14T09:08:22.289Z,3684
2018-07-14T09:09:02.750Z,3668
2018-07-14T09:09:43.173Z,3644
2018-07-14T09:10:23.560Z,3608
2018-07-14T09:11:03.987Z,3572
2018-07-14T09:11:44.400Z,3552
2018-07-14T09:12:24.810Z,3528
2018-07-14T09:13:05.242Z,3508
2018-07-14T09:13:45.709Z,3484
2018-07-14T09:14:26.097Z,3468
2018-07-14T09:15:06.517Z,3452
2018-07-14T09:15:46.916Z,3444
2018-07-14T09:16:27.436Z,3420
2018-07-14T09:17:07.754Z,3400
2018-07-14T09:17:48.173Z,3384
2018-07-14T09:18:28.594Z,3364
2018-07-14T09:19:09.030Z,3340
2018-07-14T09:19:49.457Z,3324
2018-07-14T09:20:29.913Z,3316
2018-07-14T09:21:10.320Z,3320
2018-07-14T09:21:50.731Z,3308
2018-07-14T09:22:31.185Z,3308
2018-07-14T09:23:11.586Z,3296
2018-07-14T09:23:51.977Z,3288
2018-07-14T09:24:32.377Z,3260
2018-07-14T09:25:13.229Z,3240
2018-07-14T09:25:53.646Z,3224
2018-07-14T09:26:34.068Z,3212
2018-07-14T09:27:14.519Z,3192
2018-07-14T09:27:54.979Z,3176
2018-07-14T09:28:35.368Z,3156
2018-07-14T09:29:15.807Z,3152
2018-07-14T09:31:34.769Z,3116
2018-07-14T09:32:15.292Z,3116
2018-07-14T09:32:55.649Z,3108
2018-07-14T09:33:36.081Z,3092
2018-07-14T09:34:16.588Z,3084
2018-07-14T09:34:56.894Z,3068
2018-07-14T09:35:37.314Z,3056
2018-07-14T09:36:17.748Z,3040
2018-07-14T09:36:58.209Z,3044
2018-07-14T09:37:38.592Z,3040
2018-07-14T09:38:19.073Z,3040
2018-07-14T09:38:59.487Z,3032
2018-07-14T09:39:39.921Z,3016
2018-07-14T09:40:20.383Z,3000
2018-07-14T09:41:00.775Z,2980
2018-07-14T09:41:41.205Z,2964
2018-07-14T09:42:21.638Z,2944
2018-07-14T09:43:02.097Z,2932
2018-07-14T09:43:42.459Z,2936
2018-07-14T09:44:22.895Z,2940
2018-07-14T09:45:03.325Z,2924
2018-07-14T09:45:43.707Z,2908
2018-07-14T09:46:24.104Z,2912
2018-07-14T09:47:04.502Z,2904
2018-07-14T09:47:44.952Z,2896
2018-07-14T09:48:25.362Z,2876
2018-07-14T09:49:05.846Z,2860
2018-07-14T09:49:46.340Z,2848
2018-07-14T09:50:26.700Z,2836
2018-07-14T09:51:07.123Z,2828
2018-07-14T09:51:47.600Z,2824
2018-07-14T09:52:31.663Z,2812
2018-07-14T09:53:12.102Z,2788
2018-07-14T09:53:52.767Z,2788
2018-07-14T09:54:33.058Z,2772
2018-07-14T09:55:13.441Z,2752
2018-07-14T09:55:53.929Z,2736
2018-07-14T09:56:34.349Z,2724
2018-07-14T09:59:08.511Z,2748
2018-07-14T09:59:48.759Z,2740
2018-07-14T10:00:29.253Z,2740
2018-07-14T10:01:09.723Z,2724
2018-07-14T10:01:50.048Z,2720
2018-07-14T10:02:30.471Z,2712
2018-07-14T10:03:10.914Z,2692
2018-07-14T10:03:51.414Z,2672
2018-07-14T10:04:31.897Z,2656
2018-07-14T10:05:12.299Z,2648
2018-07-14T10:43:11.172Z,2236
2018-07-14T10:46:07.666Z,2344
2018-07-14T10:46:48.077Z,2380
2018-07-14T10:47:28.483Z,2340
2018-07-14T10:48:09.024Z,2332
2018-07-14T10:48:49.430Z,2368
2018-07-14T10:49:29.915Z,2312
2018-07-14T10:50:10.341Z,2296
2018-07-14T10:50:50.743Z,2300
2018-07-14T10:51:31.178Z,2236
2018-07-14T10:52:11.791Z,2148
2018-07-14T10:52:51.988Z,2076
2018-07-14T10:53:32.476Z,2044
2018-07-14T10:54:12.827Z,1996
2018-07-14T10:54:56.008Z,2016
2018-07-14T10:55:36.425Z,2056
2018-07-14T10:56:16.844Z,2096
2018-07-14T10:56:57.574Z,2108
2018-07-14T10:57:39.462Z,2124
2018-07-14T10:58:19.885Z,2124
2018-07-14T10:59:00.306Z,2120
2018-07-14T10:59:40.727Z,2124
2018-07-14T11:00:21.133Z,2132
2018-07-14T11:01:01.563Z,2144
2018-07-14T11:01:41.963Z,2148
2018-07-14T11:02:22.418Z,2148
2018-07-14T11:03:02.933Z,2144
2018-07-14T11:03:43.256Z,2148
2018-07-14T11:04:23.765Z,2156
2018-07-14T11:05:04.116Z,2160
2018-07-14T11:05:44.546Z,2168
2018-07-14T11:06:24.955Z,2196
2018-07-14T11:07:05.362Z,2232
2018-07-14T11:07:46.041Z,2236
2018-07-14T11:08:26.508Z,2220
2018-07-14T11:09:07.075Z,2208
2018-07-14T11:09:47.468Z,2200
2018-07-14T11:10:29.521Z,2160
2018-07-14T11:11:55.589Z,2156
2018-07-14T11:12:35.984Z,2256
2018-07-14T11:13:16.485Z,2308
2018-07-14T11:13:56.923Z,2276
2018-07-14T11:14:37.312Z,2200
2018-07-14T11:15:17.725Z,2140